Terminal Aerodrome Forecast
Issued by NWS Nashville, TN

Home | Current Version | Previous Version | Text Only | Print | Product List | Glossary On
Versions: 1 2 3 4 5 6 7 8 9 10 11 12 13 14 15 16 17
000
FTUS44 KOHX 241100
TAFBNA
TAF
KBNA 241137Z 2412/2512 32005KT 5SM BR BKN007 BKN011
      TEMPO 2412/2414 6SM BR SCT007 BKN020
     FM241500 34007G15KT P6SM BKN030
     FM242000 36008G16KT P6SM SCT040 SCT250
     FM250200 02004KT P6SM SCT250
      TEMPO 2510/2511 5SM BR=

USA.gov is the U.S. government's official web portal to all federal, state and local government web resources and services.